Pagrindinis puslapis
METAR-TAF:

METAR-TAF

Oro uostai :

Odensė, Danija

platuma: 55-29N, ilguma: 010-20E, Aukštis: 17 m

Dabartinis oras

Ataskaita buvo paskelbta 5 valandos ir 42 minutes, ne 14:50 UTC
Vėjas 12 kt iš Pietų
Temperatūra 19°C
Drėgmė 94%
Slėgis 1004 hPa
Matomumas 10 km arba daugiau
Išsisklaidę debesys ne aukštis 1800 ft
Išsisklaidę debesys ne aukštis 5000 ft

METAR: EKOD 171450Z 19012KT 9999 SCT018 SCT050 19/18 Q1004

Laikas: 22:32 (20:32 UTC)

Prognozė

Ataskaita buvo paskelbta 11 valandos ir 30 minutes, ne 09:02 UTC
Prognozė galioja nuo 17 metu 09 UTC su 17 metu 15 UTC
Vėjas 12 kt iš Pietų
Matomumas: 8000 m
Su prošvaistėmis ne aukštis 2000 ft
lietus, dulksna
Laikinai
nuo 17 metu 09 UTC su 17 metu 15 UTC
Matomumas: 4000 m
Su prošvaistėmis ne aukštis 800 ft
lietus, dulksna, rūkana

TAF: EKOD 170902Z 1709/1715 18012KT 8000 -RADZ BKN020 TEMPO 1709/1715 4000 -RADZ BR BKN008

Orai ataskaitas ir orų prognozės (METAR, TAF).

turimą stotys yra geltonos ir raudonos taškus žemėlapyje.

Perkelti pele per norėdami pamatyti stoties vardą.

Tada spustelėkite, norėdami matyti oro stebėjimo ir prognozės.

Norėdami pakeisti žemėlapį: spustelėkite ant žalios mygtukų su juodo kryžiaus žemyn,; žalią mygtuką su brūkšneliu, jei norite nutolinti; arba žalių rodyklių gretimoms žemėlapius.


METAR-TAF: